sensor_id;sensor_type;location;lat;lon;timestamp;P1;durP1;ratioP1;P2;durP2;ratioP2
42666;SDS011;28280;49.646;14.130;2023-11-21T00:01:44;2.50;;;1.25;;
42666;SDS011;28280;49.646;14.130;2023-11-21T00:12:05;1.92;;;1.27;;
42666;SDS011;28280;49.646;14.130;2023-11-21T00:22:31;2.15;;;1.20;;
42666;SDS011;28280;49.646;14.130;2023-11-21T00:32:53;3.78;;;1.48;;
42666;SDS011;28280;49.646;14.130;2023-11-21T00:43:14;2.28;;;1.10;;
42666;SDS011;28280;49.646;14.130;2023-11-21T00:53:36;2.97;;;1.42;;
42666;SDS011;28280;49.646;14.130;2023-11-21T01:03:57;2.92;;;1.25;;
42666;SDS011;28280;49.646;14.130;2023-11-21T01:14:18;3.05;;;1.02;;
42666;SDS011;28280;49.646;14.130;2023-11-21T01:24:39;3.17;;;0.98;;
42666;SDS011;28280;49.646;14.130;2023-11-21T01:35:01;2.63;;;1.10;;
42666;SDS011;28280;49.646;14.130;2023-11-21T01:45:22;2.15;;;1.08;;
42666;SDS011;28280;49.646;14.130;2023-11-21T01:55:45;2.72;;;1.40;;
42666;SDS011;28280;49.646;14.130;2023-11-21T02:06:07;1.60;;;1.13;;
42666;SDS011;28280;49.646;14.130;2023-11-21T02:16:29;3.85;;;1.23;;
42666;SDS011;28280;49.646;14.130;2023-11-21T02:26:52;2.65;;;1.05;;
42666;SDS011;28280;49.646;14.130;2023-11-21T02:37:14;2.03;;;1.00;;
42666;SDS011;28280;49.646;14.130;2023-11-21T02:47:36;2.35;;;1.05;;
42666;SDS011;28280;49.646;14.130;2023-11-21T02:57:57;1.60;;;1.00;;
42666;SDS011;28280;49.646;14.130;2023-11-21T03:08:18;1.55;;;0.90;;
42666;SDS011;28280;49.646;14.130;2023-11-21T03:18:40;1.38;;;0.80;;
42666;SDS011;28280;49.646;14.130;2023-11-21T03:29:02;1.73;;;0.80;;
42666;SDS011;28280;49.646;14.130;2023-11-21T03:39:25;1.77;;;1.02;;
42666;SDS011;28280;49.646;14.130;2023-11-21T03:49:46;2.30;;;1.00;;
42666;SDS011;28280;49.646;14.130;2023-11-21T04:00:09;2.10;;;1.00;;
42666;SDS011;28280;49.646;14.130;2023-11-21T04:10:34;2.30;;;1.10;;
42666;SDS011;28280;49.646;14.130;2023-11-21T04:20:56;2.55;;;1.13;;
42666;SDS011;28280;49.646;14.130;2023-11-21T04:31:17;1.88;;;1.15;;
42666;SDS011;28280;49.646;14.130;2023-11-21T04:41:38;1.77;;;0.90;;
42666;SDS011;28280;49.646;14.130;2023-11-21T04:52:03;0.63;;;0.60;;
42666;SDS011;28280;49.646;14.130;2023-11-21T05:02:25;1.60;;;0.77;;
42666;SDS011;28280;49.646;14.130;2023-11-21T05:12:55;1.27;;;0.80;;
42666;SDS011;28280;49.646;14.130;2023-11-21T05:23:16;1.55;;;0.60;;
42666;SDS011;28280;49.646;14.130;2023-11-21T05:33:37;0.90;;;0.60;;
42666;SDS011;28280;49.646;14.130;2023-11-21T05:43:59;1.77;;;0.95;;
42666;SDS011;28280;49.646;14.130;2023-11-21T05:54:22;1.67;;;0.80;;
42666;SDS011;28280;49.646;14.130;2023-11-21T06:04:44;2.13;;;1.02;;
42666;SDS011;28280;49.646;14.130;2023-11-21T06:15:06;1.15;;;0.90;;
42666;SDS011;28280;49.646;14.130;2023-11-21T06:25:29;1.20;;;0.77;;
42666;SDS011;28280;49.646;14.130;2023-11-21T06:35:53;1.00;;;0.75;;
42666;SDS011;28280;49.646;14.130;2023-11-21T06:46:16;1.33;;;0.90;;
42666;SDS011;28280;49.646;14.130;2023-11-21T06:56:37;1.52;;;0.70;;
42666;SDS011;28280;49.646;14.130;2023-11-21T07:19:45;2.40;;;1.05;;
42666;SDS011;28280;49.646;14.130;2023-11-21T07:42:43;2.42;;;1.17;;
42666;SDS011;28280;49.646;14.130;2023-11-21T07:55:02;1.33;;;0.90;;
42666;SDS011;28280;49.646;14.130;2023-11-21T08:28:30;1.60;;;1.08;;
42666;SDS011;28280;49.646;14.130;2023-11-21T08:51:14;1.80;;;1.00;;
42666;SDS011;28280;49.646;14.130;2023-11-21T09:15:39;0.90;;;0.70;;
42666;SDS011;28280;49.646;14.130;2023-11-21T09:27:56;1.60;;;1.10;;
42666;SDS011;28280;49.646;14.130;2023-11-21T09:38:18;2.15;;;1.00;;
42666;SDS011;28280;49.646;14.130;2023-11-21T09:48:40;1.80;;;1.10;;
42666;SDS011;28280;49.646;14.130;2023-11-21T09:59:02;1.65;;;0.80;;
42666;SDS011;28280;49.646;14.130;2023-11-21T10:21:35;2.15;;;1.40;;
42666;SDS011;28280;49.646;14.130;2023-11-21T10:31:56;2.42;;;1.40;;
42666;SDS011;28280;49.646;14.130;2023-11-21T10:42:20;1.75;;;1.10;;
42666;SDS011;28280;49.646;14.130;2023-11-21T10:52:43;2.83;;;1.13;;
42666;SDS011;28280;49.646;14.130;2023-11-21T11:03:08;2.15;;;1.20;;
42666;SDS011;28280;49.646;14.130;2023-11-21T11:13:37;1.52;;;1.20;;
42666;SDS011;28280;49.646;14.130;2023-11-21T11:45:22;2.08;;;1.10;;
42666;SDS011;28280;49.646;14.130;2023-11-21T11:56:19;1.77;;;1.00;;
42666;SDS011;28280;49.646;14.130;2023-11-21T12:06:43;2.88;;;1.52;;
42666;SDS011;28280;49.646;14.130;2023-11-21T12:17:05;1.45;;;1.00;;
42666;SDS011;28280;49.646;14.130;2023-11-21T12:27:26;1.17;;;1.00;;
42666;SDS011;28280;49.646;14.130;2023-11-21T12:37:47;1.85;;;0.90;;
42666;SDS011;28280;49.646;14.130;2023-11-21T12:48:10;1.55;;;1.00;;
42666;SDS011;28280;49.646;14.130;2023-11-21T12:58:33;1.58;;;1.00;;
42666;SDS011;28280;49.646;14.130;2023-11-21T13:08:56;1.33;;;0.88;;
42666;SDS011;28280;49.646;14.130;2023-11-21T13:19:20;1.40;;;0.90;;
42666;SDS011;28280;49.646;14.130;2023-11-21T13:29:43;1.42;;;0.93;;
42666;SDS011;28280;49.646;14.130;2023-11-21T13:40:04;1.98;;;0.95;;
42666;SDS011;28280;49.646;14.130;2023-11-21T13:50:36;1.05;;;0.95;;
42666;SDS011;28280;49.646;14.130;2023-11-21T14:00:58;1.85;;;1.20;;
42666;SDS011;28280;49.646;14.130;2023-11-21T14:11:20;2.97;;;1.33;;
42666;SDS011;28280;49.646;14.130;2023-11-21T14:21:44;1.15;;;0.93;;
42666;SDS011;28280;49.646;14.130;2023-11-21T14:32:06;2.03;;;1.17;;
42666;SDS011;28280;49.646;14.130;2023-11-21T14:42:29;3.55;;;1.00;;
42666;SDS011;28280;49.646;14.130;2023-11-21T14:52:50;1.92;;;1.27;;
42666;SDS011;28280;49.646;14.130;2023-11-21T15:03:20;2.03;;;1.15;;
42666;SDS011;28280;49.646;14.130;2023-11-21T15:14:01;3.65;;;1.40;;
42666;SDS011;28280;49.646;14.130;2023-11-21T15:24:28;2.00;;;1.37;;
42666;SDS011;28280;49.646;14.130;2023-11-21T15:34:49;2.25;;;1.23;;
42666;SDS011;28280;49.646;14.130;2023-11-21T15:45:10;1.92;;;1.15;;
42666;SDS011;28280;49.646;14.130;2023-11-21T15:55:32;2.63;;;1.65;;
42666;SDS011;28280;49.646;14.130;2023-11-21T16:05:56;1.85;;;1.50;;
42666;SDS011;28280;49.646;14.130;2023-11-21T16:16:20;3.33;;;1.65;;
42666;SDS011;28280;49.646;14.130;2023-11-21T16:26:42;2.92;;;1.80;;
42666;SDS011;28280;49.646;14.130;2023-11-21T16:37:06;2.13;;;1.40;;
42666;SDS011;28280;49.646;14.130;2023-11-21T16:47:32;2.10;;;1.38;;
42666;SDS011;28280;49.646;14.130;2023-11-21T16:57:54;2.97;;;1.33;;
42666;SDS011;28280;49.646;14.130;2023-11-21T17:08:16;3.22;;;1.42;;
42666;SDS011;28280;49.646;14.130;2023-11-21T17:18:38;2.67;;;1.63;;
42666;SDS011;28280;49.646;14.130;2023-11-21T17:28:59;2.70;;;1.58;;
42666;SDS011;28280;49.646;14.130;2023-11-21T17:39:22;2.97;;;1.80;;
42666;SDS011;28280;49.646;14.130;2023-11-21T17:49:44;2.92;;;1.30;;
42666;SDS011;28280;49.646;14.130;2023-11-21T18:00:06;1.73;;;1.42;;
42666;SDS011;28280;49.646;14.130;2023-11-21T18:10:29;1.80;;;1.42;;
42666;SDS011;28280;49.646;14.130;2023-11-21T18:20:51;2.53;;;1.75;;
42666;SDS011;28280;49.646;14.130;2023-11-21T18:31:13;2.65;;;1.65;;
42666;SDS011;28280;49.646;14.130;2023-11-21T18:41:35;2.60;;;1.60;;
42666;SDS011;28280;49.646;14.130;2023-11-21T18:51:58;2.78;;;2.08;;
42666;SDS011;28280;49.646;14.130;2023-11-21T19:02:19;2.65;;;2.00;;
42666;SDS011;28280;49.646;14.130;2023-11-21T19:12:40;2.55;;;1.90;;
42666;SDS011;28280;49.646;14.130;2023-11-21T19:23:02;2.13;;;1.67;;
42666;SDS011;28280;49.646;14.130;2023-11-21T19:33:23;2.60;;;2.00;;
42666;SDS011;28280;49.646;14.130;2023-11-21T19:43:48;2.33;;;1.60;;
42666;SDS011;28280;49.646;14.130;2023-11-21T19:54:10;3.28;;;1.95;;
42666;SDS011;28280;49.646;14.130;2023-11-21T20:04:31;4.32;;;1.98;;
42666;SDS011;28280;49.646;14.130;2023-11-21T20:14:53;3.13;;;2.03;;
42666;SDS011;28280;49.646;14.130;2023-11-21T20:25:14;3.22;;;2.20;;
42666;SDS011;28280;49.646;14.130;2023-11-21T20:35:39;2.92;;;1.92;;
42666;SDS011;28280;49.646;14.130;2023-11-21T20:46:01;3.10;;;1.90;;
42666;SDS011;28280;49.646;14.130;2023-11-21T20:56:23;2.42;;;1.65;;
42666;SDS011;28280;49.646;14.130;2023-11-21T21:06:44;2.55;;;1.95;;
42666;SDS011;28280;49.646;14.130;2023-11-21T21:17:05;1.98;;;1.38;;
42666;SDS011;28280;49.646;14.130;2023-11-21T21:27:27;2.25;;;1.50;;
42666;SDS011;28280;49.646;14.130;2023-11-21T21:37:48;2.53;;;1.50;;
42666;SDS011;28280;49.646;14.130;2023-11-21T21:48:09;2.00;;;1.45;;
42666;SDS011;28280;49.646;14.130;2023-11-21T21:58:31;1.88;;;1.40;;
42666;SDS011;28280;49.646;14.130;2023-11-21T22:08:52;3.13;;;1.60;;
42666;SDS011;28280;49.646;14.130;2023-11-21T22:19:14;2.42;;;1.55;;
42666;SDS011;28280;49.646;14.130;2023-11-21T22:29:35;2.47;;;1.48;;
42666;SDS011;28280;49.646;14.130;2023-11-21T22:39:56;1.45;;;1.20;;
42666;SDS011;28280;49.646;14.130;2023-11-21T22:50:18;1.98;;;1.35;;
42666;SDS011;28280;49.646;14.130;2023-11-21T23:00:41;1.73;;;1.13;;
42666;SDS011;28280;49.646;14.130;2023-11-21T23:11:02;2.30;;;1.40;;
42666;SDS011;28280;49.646;14.130;2023-11-21T23:21:25;2.35;;;1.20;;
42666;SDS011;28280;49.646;14.130;2023-11-21T23:31:50;2.70;;;1.10;;
42666;SDS011;28280;49.646;14.130;2023-11-21T23:42:11;1.73;;;1.20;;
42666;SDS011;28280;49.646;14.130;2023-11-21T23:52:32;2.80;;;1.00;;
